sensor_id;sensor_type;location;lat;lon;timestamp;noise_LAeq;noise_LA_min;noise_LA_max;noise_LA01;noise_LA95
72736;Laerm;60856;53.238;10.448;2023-04-30T04:52:10;47.47;46.14;50.57;;
72736;Laerm;60856;53.238;10.448;2023-04-30T04:54:35;47.59;46.24;50.20;;
72736;Laerm;60856;53.238;10.448;2023-04-30T04:57:00;47.74;46.38;50.45;;
72736;Laerm;60856;53.238;10.448;2023-04-30T04:59:27;47.93;46.70;50.80;;
72736;Laerm;60856;53.238;10.448;2023-04-30T05:01:52;48.15;46.87;50.56;;
72736;Laerm;60856;53.238;10.448;2023-04-30T05:04:17;48.22;46.85;50.68;;
72736;Laerm;60856;53.238;10.448;2023-04-30T05:06:42;48.31;47.03;50.82;;
72736;Laerm;60856;53.238;10.448;2023-04-30T05:09:07;48.56;47.37;51.05;;
72736;Laerm;60856;53.238;10.448;2023-04-30T05:11:34;48.82;47.59;51.32;;
72736;Laerm;60856;53.238;10.448;2023-04-30T05:13:59;49.22;47.91;51.34;;
72736;Laerm;60856;53.238;10.448;2023-04-30T05:16:25;49.44;48.37;51.28;;
72736;Laerm;60856;53.238;10.448;2023-04-30T05:18:50;49.56;48.50;51.89;;
72736;Laerm;60856;53.238;10.448;2023-04-30T05:21:16;49.83;48.63;51.71;;
72736;Laerm;60856;53.238;10.448;2023-04-30T05:23:41;50.23;48.98;52.51;;
72736;Laerm;60856;53.238;10.448;2023-04-30T05:26:06;50.48;49.33;52.62;;
72736;Laerm;60856;53.238;10.448;2023-04-30T05:28:31;50.75;49.33;52.57;;
72736;Laerm;60856;53.238;10.448;2023-04-30T05:30:57;50.88;49.70;52.73;;
72736;Laerm;60856;53.238;10.448;2023-04-30T05:33:23;51.05;49.88;52.68;;
72736;Laerm;60856;53.238;10.448;2023-04-30T05:35:48;51.21;50.08;52.75;;
72736;Laerm;60856;53.238;10.448;2023-04-30T05:38:13;51.36;50.18;52.90;;
72736;Laerm;60856;53.238;10.448;2023-04-30T05:40:39;51.50;50.31;53.07;;
72736;Laerm;60856;53.238;10.448;2023-04-30T05:43:04;51.61;50.46;53.05;;
72736;Laerm;60856;53.238;10.448;2023-04-30T05:45:29;51.78;50.70;53.34;;
72736;Laerm;60856;53.238;10.448;2023-04-30T05:47:55;51.96;50.78;53.55;;
72736;Laerm;60856;53.238;10.448;2023-04-30T05:50:20;52.04;50.81;53.56;;
72736;Laerm;60856;53.238;10.448;2023-04-30T05:52:45;52.12;50.88;53.73;;
72736;Laerm;60856;53.238;10.448;2023-04-30T05:55:10;52.17;51.03;53.49;;
72736;Laerm;60856;53.238;10.448;2023-04-30T05:57:36;52.15;50.89;53.38;;
72736;Laerm;60856;53.238;10.448;2023-04-30T06:00:01;52.15;50.80;53.60;;
72736;Laerm;60856;53.238;10.448;2023-04-30T06:02:27;52.05;50.95;54.08;;
72736;Laerm;60856;53.238;10.448;2023-04-30T06:04:52;52.11;51.06;53.65;;
72736;Laerm;60856;53.238;10.448;2023-04-30T06:07:17;52.15;51.01;53.67;;
72736;Laerm;60856;53.238;10.448;2023-04-30T06:09:43;52.14;51.13;53.43;;
72736;Laerm;60856;53.238;10.448;2023-04-30T06:12:08;52.14;50.96;53.48;;
72736;Laerm;60856;53.238;10.448;2023-04-30T06:14:34;52.09;51.04;53.54;;
72736;Laerm;60856;53.238;10.448;2023-04-30T06:16:59;52.47;51.08;55.71;;
72736;Laerm;60856;53.238;10.448;2023-04-30T06:19:24;52.59;51.62;53.85;;
72736;Laerm;60856;53.238;10.448;2023-04-30T06:21:50;52.47;51.36;53.84;;
72736;Laerm;60856;53.238;10.448;2023-04-30T06:24:15;52.24;50.97;55.37;;
72736;Laerm;60856;53.238;10.448;2023-04-30T06:26:40;52.19;50.92;53.55;;
72736;Laerm;60856;53.238;10.448;2023-04-30T06:29:05;52.32;51.24;53.87;;
72736;Laerm;60856;53.238;10.448;2023-04-30T06:31:31;52.48;51.17;53.96;;
72736;Laerm;60856;53.238;10.448;2023-04-30T06:33:56;52.21;51.05;53.58;;
72736;Laerm;60856;53.238;10.448;2023-04-30T06:36:21;52.14;51.02;53.69;;
72736;Laerm;60856;53.238;10.448;2023-04-30T06:38:46;52.34;51.22;53.72;;
72736;Laerm;60856;53.238;10.448;2023-04-30T06:41:12;52.37;51.15;54.00;;
72736;Laerm;60856;53.238;10.448;2023-04-30T06:43:37;52.38;51.30;53.87;;
72736;Laerm;60856;53.238;10.448;2023-04-30T06:46:03;52.44;51.22;53.84;;
72736;Laerm;60856;53.238;10.448;2023-04-30T06:48:28;52.57;51.12;54.38;;
72736;Laerm;60856;53.238;10.448;2023-04-30T06:50:54;54.97;51.40;57.37;;
72736;Laerm;60856;53.238;10.448;2023-04-30T06:53:19;54.14;52.62;55.83;;
72736;Laerm;60856;53.238;10.448;2023-04-30T06:55:45;54.59;53.53;55.88;;
72736;Laerm;60856;53.238;10.448;2023-04-30T06:58:11;54.41;53.24;55.58;;
72736;Laerm;60856;53.238;10.448;2023-04-30T07:00:36;54.41;53.24;55.51;;
72736;Laerm;60856;53.238;10.448;2023-04-30T07:03:01;54.06;51.44;55.57;;
72736;Laerm;60856;53.238;10.448;2023-04-30T07:05:28;54.42;45.56;61.26;;
72736;Laerm;60856;53.238;10.448;2023-04-30T07:07:53;54.20;45.83;56.56;;
72736;Laerm;60856;53.238;10.448;2023-04-30T07:10:19;54.74;45.57;64.88;;
72736;Laerm;60856;53.238;10.448;2023-04-30T07:12:44;60.55;52.34;67.82;;
72736;Laerm;60856;53.238;10.448;2023-04-30T07:15:09;53.16;45.30;61.07;;
72736;Laerm;60856;53.238;10.448;2023-04-30T07:17:35;51.51;45.24;55.00;;
72736;Laerm;60856;53.238;10.448;2023-04-30T07:20:01;54.34;53.09;55.56;;
72736;Laerm;60856;53.238;10.448;2023-04-30T07:22:28;54.21;53.21;55.33;;
72736;Laerm;60856;53.238;10.448;2023-04-30T07:24:53;48.63;45.20;55.08;;
72736;Laerm;60856;53.238;10.448;2023-04-30T07:27:20;46.64;45.27;51.17;;
72736;Laerm;60856;53.238;10.448;2023-04-30T07:29:45;46.61;45.19;49.78;;
72736;Laerm;60856;53.238;10.448;2023-04-30T07:32:10;46.63;45.42;51.47;;
72736;Laerm;60856;53.238;10.448;2023-04-30T07:34:36;46.61;45.18;49.56;;
72736;Laerm;60856;53.238;10.448;2023-04-30T07:37:01;46.65;45.27;49.77;;
72736;Laerm;60856;53.238;10.448;2023-04-30T07:39:27;46.64;45.22;49.63;;
72736;Laerm;60856;53.238;10.448;2023-04-30T07:41:52;46.61;45.22;49.74;;
72736;Laerm;60856;53.238;10.448;2023-04-30T07:44:17;46.64;45.33;49.60;;
72736;Laerm;60856;53.238;10.448;2023-04-30T07:46:43;46.63;45.41;50.30;;
72736;Laerm;60856;53.238;10.448;2023-04-30T07:49:08;46.64;45.19;50.03;;
72736;Laerm;60856;53.238;10.448;2023-04-30T07:51:33;46.64;45.26;49.45;;
72736;Laerm;60856;53.238;10.448;2023-04-30T07:53:59;46.63;45.19;49.68;;
72736;Laerm;60856;53.238;10.448;2023-04-30T07:56:25;46.63;45.31;49.77;;
72736;Laerm;60856;53.238;10.448;2023-04-30T07:58:50;46.61;45.33;49.67;;
72736;Laerm;60856;53.238;10.448;2023-04-30T08:01:15;46.62;45.31;49.95;;
72736;Laerm;60856;53.238;10.448;2023-04-30T08:03:40;46.62;45.37;49.52;;
72736;Laerm;60856;53.238;10.448;2023-04-30T08:06:06;46.62;45.21;49.58;;
72736;Laerm;60856;53.238;10.448;2023-04-30T08:08:43;46.60;45.26;49.52;;
72736;Laerm;60856;53.238;10.448;2023-04-30T08:11:08;46.60;45.13;49.78;;
72736;Laerm;60856;53.238;10.448;2023-04-30T08:13:33;46.63;45.14;50.13;;
72736;Laerm;60856;53.238;10.448;2023-04-30T08:15:58;46.61;45.30;50.35;;
72736;Laerm;60856;53.238;10.448;2023-04-30T08:18:24;46.62;45.19;50.10;;
72736;Laerm;60856;53.238;10.448;2023-04-30T08:20:49;46.61;45.37;49.86;;
72736;Laerm;60856;53.238;10.448;2023-04-30T08:23:14;46.60;45.12;49.70;;
72736;Laerm;60856;53.238;10.448;2023-04-30T08:25:40;46.60;45.21;50.28;;
72736;Laerm;60856;53.238;10.448;2023-04-30T08:28:06;46.61;45.10;49.62;;
72736;Laerm;60856;53.238;10.448;2023-04-30T08:30:31;46.63;45.23;50.14;;
72736;Laerm;60856;53.238;10.448;2023-04-30T08:32:56;46.60;45.37;49.88;;
72736;Laerm;60856;53.238;10.448;2023-04-30T08:35:21;46.59;45.12;50.09;;
72736;Laerm;60856;53.238;10.448;2023-04-30T08:37:47;46.62;45.41;49.57;;
72736;Laerm;60856;53.238;10.448;2023-04-30T08:40:12;46.62;45.11;50.50;;
72736;Laerm;60856;53.238;10.448;2023-04-30T08:42:40;46.61;44.89;50.27;;
72736;Laerm;60856;53.238;10.448;2023-04-30T08:45:07;46.62;45.31;50.36;;
72736;Laerm;60856;53.238;10.448;2023-04-30T08:47:34;46.62;45.31;49.58;;
72736;Laerm;60856;53.238;10.448;2023-04-30T08:50:00;46.61;45.21;50.00;;
72736;Laerm;60856;53.238;10.448;2023-04-30T08:52:25;46.61;45.25;49.68;;
72736;Laerm;60856;53.238;10.448;2023-04-30T08:54:53;46.61;45.30;49.65;;
72736;Laerm;60856;53.238;10.448;2023-04-30T08:57:18;46.60;45.25;50.13;;
72736;Laerm;60856;53.238;10.448;2023-04-30T08:59:44;46.61;45.31;49.85;;
72736;Laerm;60856;53.238;10.448;2023-04-30T09:02:11;46.61;45.26;49.75;;
72736;Laerm;60856;53.238;10.448;2023-04-30T09:04:36;46.59;45.38;49.71;;
72736;Laerm;60856;53.238;10.448;2023-04-30T09:07:01;46.62;45.35;49.64;;
72736;Laerm;60856;53.238;10.448;2023-04-30T09:09:29;46.60;44.95;50.14;;
72736;Laerm;60856;53.238;10.448;2023-04-30T09:12:10;46.62;45.20;50.15;;
72736;Laerm;60856;53.238;10.448;2023-04-30T09:14:39;46.64;45.27;50.26;;
72736;Laerm;60856;53.238;10.448;2023-04-30T09:17:04;46.59;45.27;50.16;;
72736;Laerm;60856;53.238;10.448;2023-04-30T09:19:29;46.63;45.35;49.89;;
72736;Laerm;60856;53.238;10.448;2023-04-30T09:21:55;46.59;45.29;49.88;;
72736;Laerm;60856;53.238;10.448;2023-04-30T09:24:20;46.63;45.28;61.25;;
72736;Laerm;60856;53.238;10.448;2023-04-30T09:26:46;46.75;45.32;50.17;;
72736;Laerm;60856;53.238;10.448;2023-04-30T09:29:11;47.07;45.48;50.46;;
72736;Laerm;60856;53.238;10.448;2023-04-30T09:31:37;46.62;45.30;50.01;;
72736;Laerm;60856;53.238;10.448;2023-04-30T09:34:03;46.61;45.26;49.55;;
72736;Laerm;60856;53.238;10.448;2023-04-30T09:36:28;46.62;45.13;49.28;;
72736;Laerm;60856;53.238;10.448;2023-04-30T09:38:54;46.61;45.26;49.74;;
72736;Laerm;60856;53.238;10.448;2023-04-30T09:41:23;46.63;45.30;50.27;;
72736;Laerm;60856;53.238;10.448;2023-04-30T09:43:48;46.63;45.18;50.22;;
72736;Laerm;60856;53.238;10.448;2023-04-30T09:46:14;46.63;45.07;50.65;;
72736;Laerm;60856;53.238;10.448;2023-04-30T09:48:42;46.64;45.22;49.69;;
72736;Laerm;60856;53.238;10.448;2023-04-30T09:51:08;46.61;45.16;50.34;;
72736;Laerm;60856;53.238;10.448;2023-04-30T09:53:35;46.61;44.88;50.01;;
72736;Laerm;60856;53.238;10.448;2023-04-30T09:56:01;46.60;45.19;50.60;;
72736;Laerm;60856;53.238;10.448;2023-04-30T09:58:30;46.63;45.34;50.06;;
72736;Laerm;60856;53.238;10.448;2023-04-30T10:01:00;46.63;45.11;49.63;;
72736;Laerm;60856;53.238;10.448;2023-04-30T10:03:27;46.62;45.29;50.05;;
72736;Laerm;60856;53.238;10.448;2023-04-30T10:05:54;46.63;45.27;49.74;;
72736;Laerm;60856;53.238;10.448;2023-04-30T10:08:26;46.62;45.23;49.71;;
72736;Laerm;60856;53.238;10.448;2023-04-30T10:11:00;46.61;45.29;50.32;;
72736;Laerm;60856;53.238;10.448;2023-04-30T10:13:30;46.61;45.22;50.01;;
72736;Laerm;60856;53.238;10.448;2023-04-30T10:15:57;46.65;45.37;59.66;;
72736;Laerm;60856;53.238;10.448;2023-04-30T10:20:52;46.59;45.25;49.69;;
72736;Laerm;60856;53.238;10.448;2023-04-30T10:23:18;46.63;45.37;49.70;;
72736;Laerm;60856;53.238;10.448;2023-04-30T10:25:43;46.58;45.15;49.69;;
72736;Laerm;60856;53.238;10.448;2023-04-30T10:28:09;46.63;45.25;50.20;;
72736;Laerm;60856;53.238;10.448;2023-04-30T10:30:34;46.62;44.97;49.63;;
72736;Laerm;60856;53.238;10.448;2023-04-30T10:35:46;46.60;45.35;49.56;;
72736;Laerm;60856;53.238;10.448;2023-04-30T10:38:20;46.61;45.34;49.67;;
72736;Laerm;60856;53.238;10.448;2023-04-30T10:40:47;46.60;45.42;49.98;;
72736;Laerm;60856;53.238;10.448;2023-04-30T10:43:12;46.62;45.08;49.89;;
72736;Laerm;60856;53.238;10.448;2023-04-30T10:45:38;46.62;45.11;49.77;;
72736;Laerm;60856;53.238;10.448;2023-04-30T10:48:05;46.61;45.19;49.62;;
72736;Laerm;60856;53.238;10.448;2023-04-30T10:50:31;46.62;45.26;50.27;;
72736;Laerm;60856;53.238;10.448;2023-04-30T10:53:02;46.61;45.30;50.40;;
72736;Laerm;60856;53.238;10.448;2023-04-30T10:55:28;46.60;45.34;49.90;;
72736;Laerm;60856;53.238;10.448;2023-04-30T10:57:53;46.63;45.31;49.89;;
72736;Laerm;60856;53.238;10.448;2023-04-30T11:00:20;46.62;45.31;49.53;;
72736;Laerm;60856;53.238;10.448;2023-04-30T11:02:48;46.61;45.31;49.97;;
72736;Laerm;60856;53.238;10.448;2023-04-30T11:05:19;46.60;45.26;49.70;;
72736;Laerm;60856;53.238;10.448;2023-04-30T11:07:50;46.63;45.27;50.57;;
72736;Laerm;60856;53.238;10.448;2023-04-30T11:10:15;46.59;45.20;49.62;;
72736;Laerm;60856;53.238;10.448;2023-04-30T11:12:46;46.62;44.98;50.06;;
72736;Laerm;60856;53.238;10.448;2023-04-30T11:15:12;46.62;45.26;49.83;;
72736;Laerm;60856;53.238;10.448;2023-04-30T11:17:38;46.62;45.30;49.63;;
72736;Laerm;60856;53.238;10.448;2023-04-30T11:20:03;46.61;45.22;50.20;;
72736;Laerm;60856;53.238;10.448;2023-04-30T11:22:29;46.61;45.19;49.44;;
72736;Laerm;60856;53.238;10.448;2023-04-30T11:27:29;46.60;45.30;49.59;;
72736;Laerm;60856;53.238;10.448;2023-04-30T11:29:54;46.63;45.28;49.49;;
72736;Laerm;60856;53.238;10.448;2023-04-30T11:32:21;46.61;45.26;49.70;;
72736;Laerm;60856;53.238;10.448;2023-04-30T11:34:46;46.62;45.32;49.94;;
72736;Laerm;60856;53.238;10.448;2023-04-30T11:37:14;46.61;45.19;49.93;;
72736;Laerm;60856;53.238;10.448;2023-04-30T11:39:40;46.58;45.18;49.73;;
72736;Laerm;60856;53.238;10.448;2023-04-30T11:42:06;46.62;45.27;50.07;;
72736;Laerm;60856;53.238;10.448;2023-04-30T11:44:32;46.60;45.32;50.13;;
72736;Laerm;60856;53.238;10.448;2023-04-30T11:46:57;46.61;45.24;49.70;;
72736;Laerm;60856;53.238;10.448;2023-04-30T11:49:23;46.59;45.25;49.87;;
72736;Laerm;60856;53.238;10.448;2023-04-30T11:54:43;46.63;45.16;50.14;;
72736;Laerm;60856;53.238;10.448;2023-04-30T11:57:08;46.62;45.44;49.87;;
72736;Laerm;60856;53.238;10.448;2023-04-30T11:59:38;46.63;45.16;49.84;;
72736;Laerm;60856;53.238;10.448;2023-04-30T12:02:05;46.61;45.25;49.66;;
72736;Laerm;60856;53.238;10.448;2023-04-30T12:04:30;46.60;45.19;49.36;;
72736;Laerm;60856;53.238;10.448;2023-04-30T12:06:56;46.62;45.26;49.68;;
72736;Laerm;60856;53.238;10.448;2023-04-30T12:09:22;46.63;45.16;49.96;;
72736;Laerm;60856;53.238;10.448;2023-04-30T12:11:47;46.60;45.28;50.59;;
72736;Laerm;60856;53.238;10.448;2023-04-30T12:14:13;46.60;45.32;49.78;;
72736;Laerm;60856;53.238;10.448;2023-04-30T12:16:42;46.61;45.43;50.48;;
72736;Laerm;60856;53.238;10.448;2023-04-30T12:19:09;46.61;45.41;49.82;;
72736;Laerm;60856;53.238;10.448;2023-04-30T12:21:35;46.61;45.34;49.64;;
72736;Laerm;60856;53.238;10.448;2023-04-30T12:24:01;46.59;45.10;49.80;;
72736;Laerm;60856;53.238;10.448;2023-04-30T12:26:33;46.61;45.20;49.88;;
72736;Laerm;60856;53.238;10.448;2023-04-30T12:28:59;46.61;45.21;50.04;;
72736;Laerm;60856;53.238;10.448;2023-04-30T12:31:26;46.60;45.12;50.34;;
72736;Laerm;60856;53.238;10.448;2023-04-30T12:33:56;46.62;45.24;50.37;;
72736;Laerm;60856;53.238;10.448;2023-04-30T12:36:27;46.61;45.19;50.41;;
72736;Laerm;60856;53.238;10.448;2023-04-30T12:39:00;46.60;45.24;49.94;;
72736;Laerm;60856;53.238;10.448;2023-04-30T12:41:27;46.61;45.04;49.60;;
72736;Laerm;60856;53.238;10.448;2023-04-30T12:44:12;46.62;45.18;50.27;;
72736;Laerm;60856;53.238;10.448;2023-04-30T12:46:37;46.60;45.36;50.01;;
72736;Laerm;60856;53.238;10.448;2023-04-30T12:49:02;46.60;45.41;49.85;;
72736;Laerm;60856;53.238;10.448;2023-04-30T12:51:27;46.62;45.35;49.71;;
72736;Laerm;60856;53.238;10.448;2023-04-30T12:53:53;46.60;45.22;50.02;;
72736;Laerm;60856;53.238;10.448;2023-04-30T12:56:18;46.60;45.38;49.72;;
72736;Laerm;60856;53.238;10.448;2023-04-30T12:58:44;46.61;45.34;49.71;;
72736;Laerm;60856;53.238;10.448;2023-04-30T13:01:11;46.61;45.32;49.80;;
72736;Laerm;60856;53.238;10.448;2023-04-30T13:03:37;46.63;45.32;50.81;;
72736;Laerm;60856;53.238;10.448;2023-04-30T13:06:02;46.61;45.40;49.73;;
72736;Laerm;60856;53.238;10.448;2023-04-30T13:08:28;46.60;45.40;49.47;;
72736;Laerm;60856;53.238;10.448;2023-04-30T13:10:54;46.61;45.22;49.88;;
72736;Laerm;60856;53.238;10.448;2023-04-30T13:13:19;46.63;45.32;50.27;;
72736;Laerm;60856;53.238;10.448;2023-04-30T13:15:45;46.61;45.31;49.65;;
72736;Laerm;60856;53.238;10.448;2023-04-30T13:18:10;46.60;45.35;49.70;;
72736;Laerm;60856;53.238;10.448;2023-04-30T13:20:36;46.62;45.10;49.90;;
72736;Laerm;60856;53.238;10.448;2023-04-30T13:23:02;46.60;45.25;50.14;;
72736;Laerm;60856;53.238;10.448;2023-04-30T13:25:27;46.60;45.20;50.06;;
72736;Laerm;60856;53.238;10.448;2023-04-30T13:27:53;46.60;45.41;50.70;;
72736;Laerm;60856;53.238;10.448;2023-04-30T13:30:18;46.63;45.29;49.75;;
72736;Laerm;60856;53.238;10.448;2023-04-30T13:32:43;46.59;45.22;50.20;;
72736;Laerm;60856;53.238;10.448;2023-04-30T13:35:10;46.61;45.22;49.82;;
72736;Laerm;60856;53.238;10.448;2023-04-30T13:37:36;46.61;45.22;49.81;;
72736;Laerm;60856;53.238;10.448;2023-04-30T13:40:01;46.64;45.34;50.36;;
72736;Laerm;60856;53.238;10.448;2023-04-30T13:42:28;46.62;45.27;49.90;;
72736;Laerm;60856;53.238;10.448;2023-04-30T13:44:53;46.62;45.33;49.69;;
72736;Laerm;60856;53.238;10.448;2023-04-30T13:47:18;46.63;45.31;49.81;;
72736;Laerm;60856;53.238;10.448;2023-04-30T13:49:45;46.63;45.17;49.63;;
72736;Laerm;60856;53.238;10.448;2023-04-30T13:52:10;46.62;45.32;49.68;;
72736;Laerm;60856;53.238;10.448;2023-04-30T13:54:35;46.61;45.35;50.05;;
72736;Laerm;60856;53.238;10.448;2023-04-30T13:57:02;46.60;45.31;50.33;;
72736;Laerm;60856;53.238;10.448;2023-04-30T13:59:28;46.62;45.35;50.26;;
72736;Laerm;60856;53.238;10.448;2023-04-30T14:01:53;46.61;45.34;50.05;;
72736;Laerm;60856;53.238;10.448;2023-04-30T14:04:18;46.61;45.21;50.18;;
72736;Laerm;60856;53.238;10.448;2023-04-30T14:06:44;46.63;45.30;49.97;;
72736;Laerm;60856;53.238;10.448;2023-04-30T14:09:09;46.61;45.39;49.46;;
72736;Laerm;60856;53.238;10.448;2023-04-30T14:11:34;46.61;45.23;50.50;;
72736;Laerm;60856;53.238;10.448;2023-04-30T14:14:00;46.61;45.29;49.59;;
72736;Laerm;60856;53.238;10.448;2023-04-30T14:16:25;46.61;45.04;49.83;;
72736;Laerm;60856;53.238;10.448;2023-04-30T14:18:50;46.61;45.08;49.99;;
72736;Laerm;60856;53.238;10.448;2023-04-30T14:21:15;46.60;45.36;50.11;;
72736;Laerm;60856;53.238;10.448;2023-04-30T14:23:41;46.63;45.38;50.45;;
72736;Laerm;60856;53.238;10.448;2023-04-30T14:26:06;46.60;45.24;49.60;;
72736;Laerm;60856;53.238;10.448;2023-04-30T14:28:31;46.60;45.24;49.92;;
72736;Laerm;60856;53.238;10.448;2023-04-30T14:30:57;46.62;45.08;50.03;;
72736;Laerm;60856;53.238;10.448;2023-04-30T14:33:22;46.61;45.31;49.42;;
72736;Laerm;60856;53.238;10.448;2023-04-30T14:35:47;46.62;45.35;49.69;;
72736;Laerm;60856;53.238;10.448;2023-04-30T14:38:13;46.63;45.21;50.05;;
72736;Laerm;60856;53.238;10.448;2023-04-30T14:40:38;46.62;45.35;49.52;;
72736;Laerm;60856;53.238;10.448;2023-04-30T14:43:03;46.62;45.38;49.67;;
72736;Laerm;60856;53.238;10.448;2023-04-30T14:45:29;46.62;45.29;49.79;;
72736;Laerm;60856;53.238;10.448;2023-04-30T14:47:54;46.63;45.18;49.64;;
72736;Laerm;60856;53.238;10.448;2023-04-30T14:50:19;46.62;45.31;50.32;;
72736;Laerm;60856;53.238;10.448;2023-04-30T14:52:45;46.61;45.39;50.13;;
72736;Laerm;60856;53.238;10.448;2023-04-30T14:55:11;46.62;44.93;49.32;;
72736;Laerm;60856;53.238;10.448;2023-04-30T14:57:36;46.64;45.27;49.58;;
72736;Laerm;60856;53.238;10.448;2023-04-30T15:00:01;46.65;45.07;49.87;;
72736;Laerm;60856;53.238;10.448;2023-04-30T15:02:27;46.64;45.12;49.75;;
72736;Laerm;60856;53.238;10.448;2023-04-30T15:04:52;46.65;45.46;49.83;;
72736;Laerm;60856;53.238;10.448;2023-04-30T15:07:17;46.64;45.34;49.71;;
72736;Laerm;60856;53.238;10.448;2023-04-30T15:09:43;46.65;45.27;49.68;;
72736;Laerm;60856;53.238;10.448;2023-04-30T15:12:10;46.67;45.27;49.75;;
72736;Laerm;60856;53.238;10.448;2023-04-30T15:14:35;46.64;45.43;49.83;;
72736;Laerm;60856;53.238;10.448;2023-04-30T15:17:01;46.63;45.13;49.73;;
72736;Laerm;60856;53.238;10.448;2023-04-30T15:19:26;46.63;45.04;49.77;;
72736;Laerm;60856;53.238;10.448;2023-04-30T15:21:51;46.63;45.23;50.21;;
72736;Laerm;60856;53.238;10.448;2023-04-30T15:24:16;46.66;45.36;50.54;;
72736;Laerm;60856;53.238;10.448;2023-04-30T15:26:42;46.64;45.33;49.99;;
72736;Laerm;60856;53.238;10.448;2023-04-30T15:29:08;46.64;45.31;49.60;;
72736;Laerm;60856;53.238;10.448;2023-04-30T15:31:34;46.65;45.23;49.67;;
72736;Laerm;60856;53.238;10.448;2023-04-30T15:34:00;46.65;45.32;49.98;;
72736;Laerm;60856;53.238;10.448;2023-04-30T15:36:25;46.62;45.35;49.48;;
72736;Laerm;60856;53.238;10.448;2023-04-30T15:38:51;46.64;45.39;49.77;;
72736;Laerm;60856;53.238;10.448;2023-04-30T15:41:16;46.65;45.38;49.66;;
72736;Laerm;60856;53.238;10.448;2023-04-30T15:43:41;46.63;45.27;50.19;;
72736;Laerm;60856;53.238;10.448;2023-04-30T15:46:06;46.64;45.27;49.96;;
72736;Laerm;60856;53.238;10.448;2023-04-30T15:48:32;46.65;45.29;49.66;;
72736;Laerm;60856;53.238;10.448;2023-04-30T15:50:57;46.64;45.07;49.74;;
72736;Laerm;60856;53.238;10.448;2023-04-30T15:53:22;46.62;45.33;49.99;;
72736;Laerm;60856;53.238;10.448;2023-04-30T15:55:47;46.60;45.37;49.34;;
72736;Laerm;60856;53.238;10.448;2023-04-30T15:58:13;46.64;45.35;49.70;;
72736;Laerm;60856;53.238;10.448;2023-04-30T16:00:38;46.64;45.24;50.32;;
72736;Laerm;60856;53.238;10.448;2023-04-30T16:03:04;46.61;45.30;49.70;;
72736;Laerm;60856;53.238;10.448;2023-04-30T16:05:29;46.63;45.30;49.95;;
72736;Laerm;60856;53.238;10.448;2023-04-30T16:07:55;46.63;45.24;49.85;;
72736;Laerm;60856;53.238;10.448;2023-04-30T16:10:20;46.64;45.39;49.75;;
72736;Laerm;60856;53.238;10.448;2023-04-30T16:12:46;46.63;45.26;49.71;;
72736;Laerm;60856;53.238;10.448;2023-04-30T16:15:11;46.62;45.44;49.61;;
72736;Laerm;60856;53.238;10.448;2023-04-30T16:17:36;46.64;45.28;50.25;;
72736;Laerm;60856;53.238;10.448;2023-04-30T16:20:02;46.61;45.30;49.67;;
72736;Laerm;60856;53.238;10.448;2023-04-30T16:22:27;46.65;45.30;50.28;;
72736;Laerm;60856;53.238;10.448;2023-04-30T16:24:54;46.63;45.44;49.78;;
72736;Laerm;60856;53.238;10.448;2023-04-30T16:27:19;46.64;45.30;49.46;;
72736;Laerm;60856;53.238;10.448;2023-04-30T16:29:44;46.61;45.43;49.65;;
72736;Laerm;60856;53.238;10.448;2023-04-30T16:32:09;46.63;45.33;49.36;;
72736;Laerm;60856;53.238;10.448;2023-04-30T16:34:35;46.62;45.22;50.12;;
72736;Laerm;60856;53.238;10.448;2023-04-30T16:37:01;46.62;45.31;49.66;;
72736;Laerm;60856;53.238;10.448;2023-04-30T16:39:26;46.60;45.15;49.87;;
72736;Laerm;60856;53.238;10.448;2023-04-30T16:41:51;46.61;45.38;49.72;;
72736;Laerm;60856;53.238;10.448;2023-04-30T16:44:16;46.62;45.38;49.75;;
72736;Laerm;60856;53.238;10.448;2023-04-30T16:46:41;46.63;45.32;49.97;;
72736;Laerm;60856;53.238;10.448;2023-04-30T16:49:07;46.63;45.24;49.67;;
72736;Laerm;60856;53.238;10.448;2023-04-30T16:51:32;46.60;45.29;49.74;;
72736;Laerm;60856;53.238;10.448;2023-04-30T16:53:57;46.62;45.32;49.79;;
72736;Laerm;60856;53.238;10.448;2023-04-30T16:56:22;46.61;45.30;49.66;;
72736;Laerm;60856;53.238;10.448;2023-04-30T16:58:48;46.60;45.37;49.59;;
72736;Laerm;60856;53.238;10.448;2023-04-30T17:01:13;46.61;45.27;50.04;;
72736;Laerm;60856;53.238;10.448;2023-04-30T17:03:38;46.59;45.22;50.55;;
72736;Laerm;60856;53.238;10.448;2023-04-30T17:06:03;46.59;45.41;50.98;;
72736;Laerm;60856;53.238;10.448;2023-04-30T17:08:29;46.58;45.23;49.73;;
72736;Laerm;60856;53.238;10.448;2023-04-30T17:10:55;46.60;45.25;50.25;;
72736;Laerm;60856;53.238;10.448;2023-04-30T17:13:20;46.61;45.33;49.49;;
72736;Laerm;60856;53.238;10.448;2023-04-30T17:15:45;46.60;45.33;50.19;;
72736;Laerm;60856;53.238;10.448;2023-04-30T17:18:10;46.61;45.33;49.52;;
72736;Laerm;60856;53.238;10.448;2023-04-30T17:20:36;46.60;45.30;49.84;;
72736;Laerm;60856;53.238;10.448;2023-04-30T17:23:01;46.60;45.26;50.04;;
72736;Laerm;60856;53.238;10.448;2023-04-30T17:25:27;46.59;45.35;50.21;;
72736;Laerm;60856;53.238;10.448;2023-04-30T17:27:53;46.58;45.31;49.75;;
72736;Laerm;60856;53.238;10.448;2023-04-30T17:30:19;46.57;45.16;49.43;;
72736;Laerm;60856;53.238;10.448;2023-04-30T17:32:45;46.60;45.21;50.15;;
72736;Laerm;60856;53.238;10.448;2023-04-30T17:35:10;46.59;45.22;49.98;;
72736;Laerm;60856;53.238;10.448;2023-04-30T17:37:35;46.61;45.11;50.75;;
72736;Laerm;60856;53.238;10.448;2023-04-30T17:40:01;46.59;45.12;49.60;;
72736;Laerm;60856;53.238;10.448;2023-04-30T17:42:26;46.60;45.26;50.14;;
72736;Laerm;60856;53.238;10.448;2023-04-30T17:44:51;46.61;45.32;49.61;;
72736;Laerm;60856;53.238;10.448;2023-04-30T17:47:16;46.60;45.25;49.66;;
72736;Laerm;60856;53.238;10.448;2023-04-30T17:49:43;46.61;45.17;49.76;;
72736;Laerm;60856;53.238;10.448;2023-04-30T17:52:08;46.59;45.30;49.60;;
72736;Laerm;60856;53.238;10.448;2023-04-30T17:54:34;46.59;45.25;49.84;;
72736;Laerm;60856;53.238;10.448;2023-04-30T17:57:00;46.59;45.19;50.06;;
72736;Laerm;60856;53.238;10.448;2023-04-30T17:59:26;46.59;45.32;49.73;;
72736;Laerm;60856;53.238;10.448;2023-04-30T18:01:52;46.58;45.06;50.23;;
72736;Laerm;60856;53.238;10.448;2023-04-30T18:04:18;46.58;45.32;49.86;;
72736;Laerm;60856;53.238;10.448;2023-04-30T18:06:44;46.61;45.22;49.94;;
72736;Laerm;60856;53.238;10.448;2023-04-30T18:09:09;46.58;44.95;49.58;;
72736;Laerm;60856;53.238;10.448;2023-04-30T18:11:34;46.58;45.17;49.70;;
72736;Laerm;60856;53.238;10.448;2023-04-30T18:14:00;46.57;45.24;50.78;;
72736;Laerm;60856;53.238;10.448;2023-04-30T18:16:25;46.60;45.34;49.47;;
72736;Laerm;60856;53.238;10.448;2023-04-30T18:18:51;46.56;45.13;49.61;;
72736;Laerm;60856;53.238;10.448;2023-04-30T18:21:16;46.58;45.24;50.01;;
72736;Laerm;60856;53.238;10.448;2023-04-30T18:23:42;46.59;45.25;50.76;;
72736;Laerm;60856;53.238;10.448;2023-04-30T18:26:07;46.58;45.26;50.19;;